createdAt,value
2017-11-28T00:00:07.001Z,84.78
2017-11-28T00:02:34.490Z,85.23
2017-11-28T00:05:01.942Z,85.22
2017-11-28T00:07:29.414Z,84.58
2017-11-28T00:09:56.873Z,84.88
2017-11-28T00:12:24.351Z,85.16
2017-11-28T00:14:51.808Z,84.87
2017-11-28T00:17:19.312Z,84.49
2017-11-28T00:19:46.778Z,84.83
2017-11-28T00:22:14.274Z,84.95
2017-11-28T00:24:41.731Z,84.99
2017-11-28T00:27:09.238Z,84.44
2017-11-28T00:29:36.694Z,85.12
2017-11-28T00:32:04.157Z,84.79
2017-11-28T00:34:31.630Z,84.88
2017-11-28T00:36:59.113Z,85.12
2017-11-28T00:39:26.594Z,85.22
2017-11-28T00:41:54.054Z,85.16
2017-11-28T00:44:21.534Z,84.71
2017-11-28T00:46:48.992Z,85.20
2017-11-28T00:49:16.478Z,85.38
2017-11-28T00:51:43.927Z,84.74
2017-11-28T00:54:11.402Z,85.77
2017-11-28T00:56:38.872Z,85.22
2017-11-28T00:59:06.407Z,85.87
2017-11-28T01:01:33.889Z,85.54
2017-11-28T01:04:01.350Z,85.82
2017-11-28T01:06:28.906Z,85.92
2017-11-28T01:08:56.367Z,85.64
2017-11-28T01:11:23.843Z,86.04
2017-11-28T01:13:51.298Z,87.00
2017-11-28T01:16:18.773Z,86.39
2017-11-28T01:18:46.245Z,85.59
2017-11-28T01:21:13.730Z,86.25
2017-11-28T01:23:41.205Z,86.72
2017-11-28T01:26:08.682Z,86.01
2017-11-28T01:28:36.139Z,85.85
2017-11-28T01:31:03.618Z,85.33
2017-11-28T01:33:31.074Z,86.05
2017-11-28T01:35:58.574Z,86.04
2017-11-28T01:38:26.044Z,86.62
2017-11-28T01:40:53.511Z,86.21
2017-11-28T01:43:20.987Z,85.97
2017-11-28T01:45:48.434Z,86.57
2017-11-28T01:48:15.914Z,85.83
2017-11-28T01:50:43.372Z,85.33
2017-11-28T01:53:10.869Z,85.87
2017-11-28T01:55:38.362Z,85.54
2017-11-28T01:58:05.848Z,85.80
2017-11-28T02:00:33.342Z,85.58
2017-11-28T02:03:00.906Z,85.38
2017-11-28T02:05:28.360Z,85.10
2017-11-28T02:07:55.850Z,85.61
2017-11-28T02:10:23.303Z,86.19
2017-11-28T02:12:50.791Z,85.82
2017-11-28T02:15:18.246Z,86.21
2017-11-28T02:17:45.793Z,85.60
2017-11-28T02:20:13.252Z,86.49
2017-11-28T02:22:40.719Z,85.26
2017-11-28T02:25:08.234Z,85.96
2017-11-28T02:27:35.689Z,85.27
2017-11-28T02:30:03.163Z,86.32
2017-11-28T02:32:30.691Z,86.19
2017-11-28T02:34:58.180Z,86.63
2017-11-28T02:37:25.704Z,86.48
2017-11-28T02:39:53.207Z,86.07
2017-11-28T02:42:20.663Z,86.28
2017-11-28T02:44:48.150Z,85.72
2017-11-28T02:47:15.631Z,85.66
2017-11-28T02:49:49.957Z,85.82
2017-11-28T02:52:17.427Z,86.30
2017-11-28T02:57:41.746Z,86.88
2017-11-28T03:00:09.251Z,86.67
2017-11-28T03:02:36.718Z,86.26
2017-11-28T03:05:04.227Z,86.54
2017-11-28T03:07:32.454Z,87.05
2017-11-28T03:10:06.514Z,86.75
2017-11-28T03:12:39.859Z,86.58
2017-11-28T03:15:09.937Z,86.97
2017-11-28T03:17:37.391Z,87.76
2017-11-28T03:20:08.404Z,87.00
2017-11-28T03:22:36.841Z,87.63
2017-11-28T03:25:14.835Z,87.03
2017-11-28T03:27:42.326Z,87.39
2017-11-28T03:33:03.943Z,88.04
2017-11-28T03:35:33.057Z,88.07
2017-11-28T03:38:00.656Z,88.13
2017-11-28T03:40:28.124Z,88.01
2017-11-28T03:42:55.601Z,88.62
2017-11-28T03:48:30.679Z,88.51
2017-11-28T03:50:58.245Z,88.27
2017-11-28T03:53:25.743Z,87.75
2017-11-28T03:55:53.197Z,87.04
2017-11-28T03:58:20.681Z,88.36
2017-11-28T04:00:48.147Z,88.14
2017-11-28T04:03:15.617Z,88.33
2017-11-28T04:05:43.087Z,87.76
2017-11-28T04:08:10.538Z,87.87
2017-11-28T04:10:38.021Z,87.75
2017-11-28T04:13:05.475Z,88.43
2017-11-28T04:15:32.958Z,87.69
2017-11-28T04:18:00.418Z,88.06
2017-11-28T04:20:27.926Z,87.45
2017-11-28T04:22:55.374Z,87.81
2017-11-28T04:25:22.846Z,87.07
2017-11-28T04:27:50.330Z,87.81
2017-11-28T04:30:17.849Z,88.37
2017-11-28T04:32:45.363Z,88.74
2017-11-28T04:35:12.818Z,88.92
2017-11-28T04:37:40.333Z,87.99
2017-11-28T04:40:07.786Z,88.07
2017-11-28T04:42:35.274Z,88.70
2017-11-28T04:45:02.804Z,88.80
2017-11-28T04:47:30.282Z,89.34
2017-11-28T04:49:57.738Z,88.58
2017-11-28T04:52:25.258Z,89.50
2017-11-28T04:54:52.715Z,89.32
2017-11-28T04:57:20.303Z,88.88
2017-11-28T04:59:47.778Z,89.12
2017-11-28T05:02:15.231Z,88.40
2017-11-28T05:04:42.757Z,89.01
2017-11-28T05:07:10.251Z,89.15
2017-11-28T05:09:37.721Z,88.59
2017-11-28T05:12:05.170Z,88.58
2017-11-28T05:14:32.649Z,88.89
2017-11-28T05:17:00.159Z,88.97
2017-11-28T05:19:27.680Z,88.18
2017-11-28T05:21:55.152Z,88.17
2017-11-28T05:24:22.612Z,87.83
2017-11-28T05:26:50.067Z,89.07
2017-11-28T05:29:17.616Z,89.36
2017-11-28T05:31:45.077Z,89.34
2017-11-28T05:34:12.535Z,89.77
2017-11-28T05:36:39.997Z,90.03
2017-11-28T05:39:07.436Z,89.06
2017-11-28T05:41:35.000Z,88.61
2017-11-28T05:44:02.572Z,88.91
2017-11-28T05:46:30.089Z,89.77
2017-11-28T05:48:57.535Z,89.15
2017-11-28T05:51:25.031Z,89.15
2017-11-28T05:53:52.484Z,89.13
2017-11-28T05:56:20.032Z,89.06
2017-11-28T05:58:47.458Z,89.42
2017-11-28T06:01:14.890Z,89.00
2017-11-28T06:03:42.353Z,88.79
2017-11-28T06:06:09.875Z,89.08
2017-11-28T06:08:37.425Z,89.38
2017-11-28T06:11:05.810Z,88.87
2017-11-28T06:13:33.358Z,87.89
2017-11-28T06:16:00.801Z,88.63
2017-11-28T06:18:28.261Z,89.11
2017-11-28T06:20:55.728Z,89.07
2017-11-28T06:23:23.211Z,89.74
2017-11-28T06:25:50.657Z,89.18
2017-11-28T06:28:18.125Z,89.12
2017-11-28T06:30:45.663Z,90.01
2017-11-28T06:33:13.200Z,90.41
2017-11-28T06:35:41.525Z,89.66
2017-11-28T06:38:08.972Z,90.49
2017-11-28T06:40:36.446Z,89.99
2017-11-28T06:43:03.881Z,89.98
2017-11-28T06:45:31.437Z,89.13
2017-11-28T06:47:58.995Z,88.90
2017-11-28T06:50:26.447Z,89.36
2017-11-28T06:52:53.946Z,89.97
2017-11-28T06:55:21.413Z,89.93
2017-11-28T06:57:48.936Z,90.09
2017-11-28T07:00:16.405Z,90.28
2017-11-28T07:02:44.758Z,89.21
2017-11-28T07:05:12.209Z,89.99
2017-11-28T07:07:39.657Z,89.31
2017-11-28T07:10:07.102Z,90.41
2017-11-28T07:12:34.575Z,90.36
2017-11-28T07:15:02.013Z,90.06
2017-11-28T07:17:29.483Z,90.88
2017-11-28T07:19:56.936Z,90.66
2017-11-28T07:22:24.553Z,91.15
2017-11-28T07:24:51.999Z,91.35
2017-11-28T07:27:19.473Z,91.63
2017-11-28T07:29:46.929Z,91.74
2017-11-28T07:32:14.397Z,92.11
2017-11-28T07:34:41.855Z,92.10
2017-11-28T07:37:09.337Z,92.02
2017-11-28T07:39:36.780Z,92.18
2017-11-28T07:42:04.246Z,92.56
2017-11-28T07:44:31.697Z,93.04
2017-11-28T07:46:59.172Z,92.84
2017-11-28T07:49:26.741Z,92.88
2017-11-28T07:51:54.205Z,91.78
2017-11-28T07:54:21.658Z,91.97
2017-11-28T07:56:49.102Z,91.58
2017-11-28T07:59:16.569Z,90.49
2017-11-28T08:01:44.031Z,90.62
2017-11-28T08:04:11.487Z,89.78
2017-11-28T08:06:38.937Z,89.41
2017-11-28T08:09:06.445Z,89.22
2017-11-28T08:11:33.936Z,88.63
2017-11-28T08:14:01.414Z,88.11
2017-11-28T08:16:28.961Z,87.65
2017-11-28T08:18:56.428Z,86.87
2017-11-28T08:21:23.872Z,87.74
2017-11-28T08:23:51.360Z,87.90
2017-11-28T08:26:18.808Z,87.45
2017-11-28T08:28:46.248Z,86.86
2017-11-28T08:31:13.736Z,86.78
2017-11-28T08:33:41.181Z,87.19
2017-11-28T08:36:08.637Z,87.04
2017-11-28T08:38:36.084Z,86.06
2017-11-28T08:41:03.531Z,86.89
2017-11-28T08:43:30.977Z,87.15
2017-11-28T08:45:58.451Z,87.18
2017-11-28T08:48:25.915Z,87.36
2017-11-28T08:50:53.370Z,88.06
2017-11-28T08:53:20.821Z,87.24
2017-11-28T08:55:48.304Z,87.27
2017-11-28T08:58:15.880Z,86.36
2017-11-28T09:00:43.381Z,86.68
2017-11-28T09:03:10.849Z,87.15
2017-11-28T09:05:38.383Z,86.89
2017-11-28T09:08:05.836Z,87.26
2017-11-28T09:10:33.286Z,87.14
2017-11-28T09:13:00.762Z,85.54
2017-11-28T09:15:28.332Z,85.60
2017-11-28T09:17:55.799Z,86.16
2017-11-28T09:20:23.336Z,85.70
2017-11-28T09:22:50.800Z,86.35
2017-11-28T09:25:18.249Z,85.79
2017-11-28T09:27:45.729Z,84.92
2017-11-28T09:30:13.252Z,85.09
2017-11-28T09:32:40.806Z,84.92
2017-11-28T09:35:08.244Z,84.98
2017-11-28T09:37:35.794Z,85.21
2017-11-28T09:40:03.251Z,85.41
2017-11-28T09:42:30.714Z,84.88
2017-11-28T09:44:58.184Z,84.40
2017-11-28T09:47:25.689Z,84.22
2017-11-28T09:49:53.138Z,84.10
2017-11-28T09:52:20.712Z,83.68
2017-11-28T09:54:48.239Z,84.49
2017-11-28T09:57:15.685Z,83.15
2017-11-28T09:59:43.150Z,83.89
2017-11-28T10:02:10.590Z,84.03
2017-11-28T10:04:38.023Z,84.42
2017-11-28T10:07:05.496Z,84.32
2017-11-28T10:09:33.031Z,84.02
2017-11-28T10:12:00.496Z,83.68
2017-11-28T10:14:27.941Z,83.96
2017-11-28T10:16:55.393Z,82.89
2017-11-28T10:19:22.832Z,83.72
2017-11-28T10:21:50.278Z,83.03
2017-11-28T10:24:18.383Z,83.00
2017-11-28T10:26:45.878Z,82.54
2017-11-28T10:29:13.320Z,82.08
2017-11-28T10:31:40.761Z,82.62
2017-11-28T10:34:08.228Z,82.33
2017-11-28T10:36:37.091Z,80.95
2017-11-28T10:39:04.938Z,80.05
2017-11-28T10:41:32.822Z,80.52
2017-11-28T10:44:00.294Z,80.68
2017-11-28T10:46:27.743Z,78.97
2017-11-28T10:48:55.204Z,77.85
2017-11-28T10:51:22.741Z,77.88
2017-11-28T10:53:50.249Z,78.10
2017-11-28T10:56:17.689Z,77.46
2017-11-28T10:58:45.170Z,77.07
2017-11-28T11:01:12.614Z,77.83
2017-11-28T11:03:40.089Z,77.75
2017-11-28T11:06:07.550Z,76.60
2017-11-28T11:08:35.009Z,76.12
2017-11-28T11:11:02.543Z,76.17
2017-11-28T11:16:11.914Z,75.90
2017-11-28T11:22:03.203Z,76.11
2017-11-28T11:24:44.164Z,75.13
2017-11-28T11:27:16.636Z,74.89
2017-11-28T11:29:52.204Z,75.64
2017-11-28T11:32:24.553Z,76.51
2017-11-28T11:37:48.635Z,77.95
2017-11-28T11:42:59.249Z,76.14
2017-11-28T11:45:29.575Z,77.07
2017-11-28T11:50:43.224Z,76.34
2017-11-28T11:53:22.561Z,75.76
2017-11-28T11:56:06.506Z,74.17
2017-11-28T11:58:44.550Z,74.59
2017-11-28T12:01:18.053Z,75.28
2017-11-28T12:03:54.768Z,75.46
2017-11-28T12:09:05.250Z,74.19
2017-11-28T12:11:32.879Z,72.65
2017-11-28T12:14:06.838Z,71.85
2017-11-28T12:16:34.994Z,72.47
2017-11-28T12:19:04.769Z,71.07
2017-11-28T12:21:32.282Z,71.85
2017-11-28T12:23:59.730Z,71.47
2017-11-28T12:26:29.886Z,70.80
2017-11-28T12:28:59.961Z,71.43
2017-11-28T12:31:28.436Z,72.87
2017-11-28T12:33:55.908Z,71.97
2017-11-28T12:36:23.409Z,72.66
2017-11-28T12:38:50.873Z,72.44
2017-11-28T12:41:18.310Z,73.22
2017-11-28T12:43:45.780Z,72.94
2017-11-28T12:46:13.210Z,72.72
2017-11-28T12:48:40.655Z,73.41
2017-11-28T12:51:08.135Z,73.60
2017-11-28T12:53:35.705Z,73.64
2017-11-28T12:56:03.156Z,72.68
2017-11-28T12:58:31.064Z,71.44
2017-11-28T13:00:58.517Z,70.35
2017-11-28T13:03:26.701Z,70.79
2017-11-28T13:05:54.403Z,70.32
2017-11-28T13:08:21.884Z,70.44
2017-11-28T13:10:49.422Z,71.11
2017-11-28T13:13:16.864Z,71.54
2017-11-28T13:15:44.327Z,71.71
2017-11-28T13:18:11.772Z,71.92
2017-11-28T13:20:39.237Z,71.31
2017-11-28T13:23:06.769Z,70.97
2017-11-28T13:25:34.628Z,71.26
2017-11-28T13:28:02.071Z,69.22
2017-11-28T13:30:29.549Z,68.67
2017-11-28T13:32:56.999Z,65.84
2017-11-28T13:35:24.472Z,66.39
2017-11-28T13:37:52.528Z,66.34
2017-11-28T13:40:20.283Z,66.17
2017-11-28T13:42:47.780Z,66.08
2017-11-28T13:45:15.232Z,66.85
2017-11-28T13:47:42.698Z,65.92
2017-11-28T13:50:10.163Z,64.83
2017-11-28T13:52:37.631Z,64.77
2017-11-28T13:55:05.139Z,65.60
2017-11-28T13:57:32.590Z,66.03
2017-11-28T14:00:00.038Z,66.70
2017-11-28T14:02:27.505Z,66.25
2017-11-28T14:04:54.966Z,67.18
2017-11-28T14:07:22.448Z,66.41
2017-11-28T14:09:49.897Z,66.00
2017-11-28T14:12:17.326Z,67.05
2017-11-28T14:14:44.776Z,65.84
2017-11-28T14:17:12.221Z,67.39
2017-11-28T14:19:39.694Z,68.05
2017-11-28T14:22:14.524Z,66.73
2017-11-28T14:24:47.821Z,67.47
2017-11-28T14:27:18.727Z,68.14
2017-11-28T14:29:50.097Z,69.10
2017-11-28T14:35:35.257Z,68.23
2017-11-28T14:38:02.704Z,68.74
2017-11-28T14:40:30.955Z,68.66
2017-11-28T14:42:59.340Z,69.81
2017-11-28T14:45:45.478Z,69.38
2017-11-28T14:48:12.916Z,70.26
2017-11-28T14:50:46.103Z,70.44
2017-11-28T14:53:13.553Z,70.58
2017-11-28T14:55:43.444Z,71.60
2017-11-28T14:58:16.544Z,71.63
2017-11-28T15:00:49.482Z,73.47
2017-11-28T15:03:16.921Z,73.07
2017-11-28T15:05:50.045Z,72.93
2017-11-28T15:08:23.064Z,72.36
2017-11-28T15:10:52.308Z,74.51
2017-11-28T15:16:27.554Z,74.43
2017-11-28T15:19:00.936Z,74.33
2017-11-28T15:21:31.206Z,73.98
2017-11-28T15:24:01.637Z,75.71
2017-11-28T15:26:29.139Z,76.02
2017-11-28T15:29:00.119Z,75.88
2017-11-28T15:31:27.605Z,75.39
2017-11-28T15:33:55.047Z,74.85
2017-11-28T15:36:22.481Z,74.60
2017-11-28T15:38:49.941Z,73.71
2017-11-28T15:41:17.409Z,74.33
2017-11-28T15:43:45.063Z,74.02
2017-11-28T15:46:12.508Z,74.85
2017-11-28T15:48:40.831Z,75.02
2017-11-28T15:51:08.392Z,75.02
2017-11-28T15:53:35.915Z,75.43
2017-11-28T15:56:03.383Z,75.88
2017-11-28T15:58:30.857Z,76.19
2017-11-28T16:00:58.315Z,75.65
2017-11-28T16:03:25.787Z,76.01
2017-11-28T16:05:53.257Z,77.48
2017-11-28T16:08:20.733Z,78.38
2017-11-28T16:10:48.187Z,78.08
2017-11-28T16:13:15.645Z,78.72
2017-11-28T16:15:43.136Z,78.39
2017-11-28T16:18:10.563Z,79.35
2017-11-28T16:20:38.545Z,77.94
2017-11-28T16:23:05.991Z,78.14
2017-11-28T16:25:33.458Z,79.11
2017-11-28T16:28:00.965Z,79.85
2017-11-28T16:30:28.475Z,80.19
2017-11-28T16:32:55.933Z,80.66
2017-11-28T16:35:23.395Z,80.75
2017-11-28T16:37:50.840Z,81.15
2017-11-28T16:40:18.309Z,81.60
2017-11-28T16:42:45.739Z,82.27
2017-11-28T16:45:13.224Z,82.21
2017-11-28T16:47:40.689Z,82.37
2017-11-28T16:50:08.289Z,82.57
2017-11-28T16:52:35.733Z,82.99
2017-11-28T16:55:03.201Z,82.81
2017-11-28T16:57:30.674Z,83.00
2017-11-28T16:59:58.209Z,82.89
2017-11-28T17:02:26.825Z,83.38
2017-11-28T17:04:54.284Z,83.83
2017-11-28T17:07:21.757Z,84.49
2017-11-28T17:09:49.213Z,84.97
2017-11-28T17:12:16.696Z,84.67
2017-11-28T17:14:44.159Z,84.93
2017-11-28T17:17:11.634Z,84.99
2017-11-28T17:19:39.114Z,84.69
2017-11-28T17:22:06.662Z,84.68
2017-11-28T17:24:34.208Z,85.66
2017-11-28T17:27:01.709Z,85.61
2017-11-28T17:29:29.152Z,86.59
2017-11-28T17:31:56.630Z,84.98
2017-11-28T17:34:24.151Z,85.61
2017-11-28T17:36:51.675Z,85.42
2017-11-28T17:39:19.144Z,86.23
2017-11-28T17:41:46.632Z,85.81
2017-11-28T17:44:14.087Z,84.82
2017-11-28T17:46:41.530Z,85.49
2017-11-28T17:49:08.997Z,85.62
2017-11-28T17:51:36.468Z,85.86
2017-11-28T17:54:04.901Z,86.53
2017-11-28T17:56:32.357Z,86.45
2017-11-28T17:58:59.810Z,87.48
2017-11-28T18:01:27.273Z,87.32
2017-11-28T18:03:54.777Z,86.41
2017-11-28T18:06:22.282Z,86.04
2017-11-28T18:08:49.733Z,86.22
2017-11-28T18:11:17.212Z,85.46
2017-11-28T18:13:44.685Z,85.58
2017-11-28T18:16:12.149Z,85.24
2017-11-28T18:18:39.588Z,86.51
2017-11-28T18:21:07.084Z,87.44
2017-11-28T18:23:34.534Z,87.82
2017-11-28T18:26:02.000Z,86.57
2017-11-28T18:28:29.464Z,85.77
2017-11-28T18:30:56.921Z,85.67
2017-11-28T18:33:24.373Z,85.54
2017-11-28T18:35:51.813Z,85.81
2017-11-28T18:38:19.296Z,86.13
2017-11-28T18:40:46.805Z,86.01
2017-11-28T18:43:14.282Z,86.53
2017-11-28T18:45:41.717Z,87.83
2017-11-28T18:48:09.258Z,88.31
2017-11-28T18:50:36.713Z,87.92
2017-11-28T18:53:04.195Z,86.48
2017-11-28T18:55:31.627Z,86.22
2017-11-28T18:57:59.101Z,86.21
2017-11-28T19:00:30.078Z,86.16
2017-11-28T19:02:57.563Z,86.92
2017-11-28T19:05:25.017Z,87.24
2017-11-28T19:07:52.481Z,86.96
2017-11-28T19:10:19.932Z,85.72
2017-11-28T19:12:47.392Z,86.83
2017-11-28T19:15:14.873Z,87.18
2017-11-28T19:17:42.336Z,87.82
2017-11-28T19:20:09.861Z,88.54
2017-11-28T19:22:37.333Z,88.31
2017-11-28T19:25:04.799Z,87.12
2017-11-28T19:27:32.235Z,87.78
2017-11-28T19:29:59.816Z,87.52
2017-11-28T19:32:27.276Z,88.08
2017-11-28T19:34:54.768Z,87.87
2017-11-28T19:37:22.304Z,87.51
2017-11-28T19:39:49.840Z,87.44
2017-11-28T19:42:17.324Z,88.07
2017-11-28T19:44:44.782Z,87.96
2017-11-28T19:47:12.313Z,87.76
2017-11-28T19:49:39.754Z,87.51
2017-11-28T19:52:07.226Z,87.93
2017-11-28T19:54:34.672Z,88.36
2017-11-28T19:57:02.136Z,88.11
2017-11-28T19:59:29.580Z,88.18
2017-11-28T20:01:57.041Z,87.11
2017-11-28T20:04:24.506Z,87.48
2017-11-28T20:06:51.969Z,87.13
2017-11-28T20:09:19.523Z,86.46
2017-11-28T20:11:46.989Z,87.45
2017-11-28T20:14:14.430Z,88.45
2017-11-28T20:16:41.895Z,88.48
2017-11-28T20:19:09.708Z,88.04
2017-11-28T20:21:37.248Z,87.52
2017-11-28T20:24:04.695Z,87.40
2017-11-28T20:26:32.167Z,87.65
2017-11-28T20:28:59.660Z,87.93
2017-11-28T20:31:27.101Z,87.80
2017-11-28T20:33:54.591Z,87.92
2017-11-28T20:36:22.038Z,88.09
2017-11-28T20:38:49.487Z,87.41
2017-11-28T20:41:16.928Z,88.02
2017-11-28T20:43:44.401Z,88.58
2017-11-28T20:46:12.142Z,87.83
2017-11-28T20:48:40.167Z,88.58
2017-11-28T20:51:08.178Z,88.50
2017-11-28T20:53:35.910Z,88.58
2017-11-28T20:56:03.370Z,88.79
2017-11-28T20:58:30.841Z,88.90
2017-11-28T21:00:58.448Z,90.83
2017-11-28T21:03:25.846Z,88.25
2017-11-28T21:05:53.362Z,88.41
2017-11-28T21:08:20.824Z,88.24
2017-11-28T21:10:48.325Z,88.79
2017-11-28T21:13:15.766Z,88.13
2017-11-28T21:15:43.267Z,87.98
2017-11-28T21:18:10.761Z,87.93
2017-11-28T21:20:38.232Z,87.59
2017-11-28T21:23:05.705Z,88.20
2017-11-28T21:25:33.228Z,88.22
2017-11-28T21:28:00.676Z,86.76
2017-11-28T21:30:28.144Z,87.28
2017-11-28T21:32:55.601Z,87.68
2017-11-28T21:35:23.068Z,87.82
2017-11-28T21:37:50.532Z,86.29
2017-11-28T21:40:18.320Z,87.65
2017-11-28T21:42:45.766Z,87.78
2017-11-28T21:45:13.248Z,87.47
2017-11-28T21:47:40.749Z,87.61
2017-11-28T21:50:08.248Z,89.04
2017-11-28T21:52:35.776Z,88.59
2017-11-28T21:55:03.283Z,88.29
2017-11-28T21:57:30.764Z,86.29
2017-11-28T21:59:58.241Z,87.11
2017-11-28T22:02:27.512Z,86.42
2017-11-28T22:04:54.961Z,89.33
2017-11-28T22:07:22.444Z,87.64
2017-11-28T22:09:49.905Z,88.59
2017-11-28T22:12:17.370Z,86.02
2017-11-28T22:14:44.933Z,88.86
2017-11-28T22:17:12.426Z,88.79
2017-11-28T22:19:39.880Z,88.44
2017-11-28T22:22:07.383Z,88.54
2017-11-28T22:24:34.827Z,88.24
2017-11-28T22:27:02.298Z,88.11
2017-11-28T22:29:29.743Z,88.22
2017-11-28T22:31:57.217Z,88.06
2017-11-28T22:34:24.671Z,87.15
2017-11-28T22:36:52.120Z,87.44
2017-11-28T22:39:19.702Z,87.71
2017-11-28T22:41:47.168Z,87.12
2017-11-28T22:44:14.633Z,87.72
2017-11-28T22:46:42.073Z,88.18
2017-11-28T22:49:09.561Z,87.45
2017-11-28T22:51:37.005Z,88.23
2017-11-28T22:54:04.515Z,87.94
2017-11-28T22:56:32.003Z,87.68
2017-11-28T22:58:59.550Z,87.12
2017-11-28T23:01:27.005Z,87.61
2017-11-28T23:03:54.565Z,88.77
2017-11-28T23:06:22.100Z,88.69
2017-11-28T23:08:49.596Z,88.43
2017-11-28T23:11:17.066Z,88.48
2017-11-28T23:13:56.243Z,88.89
2017-11-28T23:16:23.725Z,89.30
2017-11-28T23:18:51.171Z,90.42
2017-11-28T23:21:18.731Z,90.13
2017-11-28T23:23:46.173Z,89.61
2017-11-28T23:26:13.638Z,89.81
2017-11-28T23:28:41.085Z,88.95
2017-11-28T23:31:08.561Z,89.12
2017-11-28T23:33:36.001Z,89.96
2017-11-28T23:36:03.492Z,89.83
2017-11-28T23:38:30.944Z,89.15
2017-11-28T23:40:58.407Z,89.61
2017-11-28T23:43:25.847Z,89.31
2017-11-28T23:45:53.317Z,89.27
2017-11-28T23:48:20.772Z,89.79
2017-11-28T23:50:48.242Z,89.72
2017-11-28T23:53:15.691Z,89.43
2017-11-28T23:55:43.232Z,89.86
2017-11-28T23:58:10.704Z,90.03
